createdAt,value
2023-05-18T00:00:00.222Z,5.5
2023-05-18T00:04:00.291Z,5.5
2023-05-18T00:08:00.195Z,5.4
2023-05-18T00:12:00.193Z,5.3
2023-05-18T00:16:00.314Z,5.3
2023-05-18T00:20:00.252Z,5.3
2023-05-18T00:24:00.206Z,5.3
2023-05-18T00:28:00.193Z,5.2
2023-05-18T00:32:00.260Z,5.1
2023-05-18T00:36:00.210Z,5.1
2023-05-18T00:40:00.234Z,5.1
2023-05-18T00:44:00.208Z,5.2
2023-05-18T00:48:00.252Z,5.2
2023-05-18T00:52:00.191Z,5.3
2023-05-18T00:56:00.214Z,5.6
2023-05-18T01:00:00.225Z,5.7
2023-05-18T01:04:00.218Z,5.8
2023-05-18T01:08:00.208Z,5.6
2023-05-18T01:12:00.227Z,5.5
2023-05-18T01:16:00.200Z,5.4
2023-05-18T01:20:00.206Z,5.3
2023-05-18T01:24:00.202Z,5.4
2023-05-18T01:28:00.201Z,5.4
2023-05-18T01:32:00.201Z,5.3
2023-05-18T01:36:00.203Z,5.4
2023-05-18T01:40:00.240Z,5.5
2023-05-18T01:44:00.211Z,5.5
2023-05-18T01:48:00.310Z,5.5
2023-05-18T01:52:00.212Z,5.4
2023-05-18T01:56:00.201Z,5.4
2023-05-18T02:00:00.340Z,5.3
2023-05-18T02:04:00.352Z,5.3
2023-05-18T02:08:00.219Z,5.3
2023-05-18T02:12:00.204Z,5.3
2023-05-18T02:16:00.217Z,5.3
2023-05-18T02:20:00.261Z,5.6
2023-05-18T02:24:00.196Z,5.7
2023-05-18T02:28:00.198Z,5.8
2023-05-18T02:32:00.287Z,6.1
2023-05-18T02:36:00.192Z,6.1
2023-05-18T02:40:00.215Z,6.1
2023-05-18T02:44:00.189Z,6.1
2023-05-18T02:48:00.253Z,6.1
2023-05-18T02:52:00.195Z,5.9
2023-05-18T02:56:00.199Z,5.4
2023-05-18T03:00:00.192Z,5.3
2023-05-18T03:04:00.246Z,5.3
2023-05-18T03:08:00.189Z,5.3
2023-05-18T03:12:00.226Z,5.6
2023-05-18T03:16:00.193Z,5.9
2023-05-18T03:20:00.247Z,5.9
2023-05-18T03:24:00.183Z,5.5
2023-05-18T03:28:00.243Z,5.4
2023-05-18T03:32:00.194Z,5.4
2023-05-18T03:36:00.210Z,5.4
2023-05-18T03:40:00.271Z,5.3
2023-05-18T03:44:00.197Z,5.2
2023-05-18T03:48:00.249Z,5.3
2023-05-18T03:52:00.213Z,5.3
2023-05-18T03:56:00.189Z,5.3
2023-05-18T04:00:00.198Z,5.3
2023-05-18T04:04:00.241Z,5.3
2023-05-18T04:08:00.193Z,5.4
2023-05-18T04:12:00.205Z,5.6
2023-05-18T04:16:00.278Z,5.7
2023-05-18T04:20:00.210Z,5.9
2023-05-18T04:24:00.200Z,6.0
2023-05-18T04:28:00.215Z,6.1
2023-05-18T04:32:00.275Z,6.3
2023-05-18T04:36:00.206Z,6.5
2023-05-18T04:40:00.206Z,6.8
2023-05-18T04:44:00.190Z,7.2
2023-05-18T04:48:00.261Z,7.5
2023-05-18T04:52:00.186Z,7.9
2023-05-18T04:56:00.212Z,8.2
2023-05-18T05:00:00.218Z,8.3
2023-05-18T05:04:00.297Z,8.4
2023-05-18T05:08:00.178Z,8.4
2023-05-18T05:12:00.213Z,8.7
2023-05-18T05:16:00.293Z,8.7
2023-05-18T05:20:00.207Z,9.2
2023-05-18T05:24:00.215Z,9.2
2023-05-18T05:28:00.194Z,9.1
2023-05-18T05:32:00.305Z,9.8
2023-05-18T05:36:00.207Z,9.7
2023-05-18T05:40:00.204Z,10.0
2023-05-18T05:44:00.209Z,10.2
2023-05-18T05:48:00.244Z,10.5
2023-05-18T05:52:00.205Z,10.4
2023-05-18T05:56:00.187Z,11.4
2023-05-18T06:00:00.220Z,11.3
2023-05-18T06:04:00.299Z,11.8
2023-05-18T06:08:00.217Z,12.2
2023-05-18T06:12:00.233Z,11.9
2023-05-18T06:16:00.221Z,12.2
2023-05-18T06:20:00.223Z,12.5
2023-05-18T06:24:00.218Z,12.6
2023-05-18T06:28:00.207Z,12.6
2023-05-18T06:32:00.267Z,13.1
2023-05-18T06:36:00.194Z,13.3
2023-05-18T06:40:00.207Z,13.2
2023-05-18T06:44:00.219Z,13.9
2023-05-18T06:48:00.221Z,14.1
2023-05-18T06:52:00.241Z,14.1
2023-05-18T06:56:00.250Z,13.9
2023-05-18T07:00:00.199Z,14.0
2023-05-18T07:04:00.300Z,14.1
2023-05-18T07:08:00.266Z,14.8
2023-05-18T07:12:00.191Z,15.3
2023-05-18T07:16:00.258Z,15.4
2023-05-18T07:20:00.266Z,15.3
2023-05-18T07:24:00.225Z,15.4
2023-05-18T07:28:00.191Z,16.5
2023-05-18T07:32:00.362Z,17.0
2023-05-18T07:36:00.196Z,17.1
2023-05-18T07:40:00.219Z,16.1
2023-05-18T07:44:00.195Z,17.0
2023-05-18T07:48:00.294Z,17.7
2023-05-18T07:52:00.221Z,18.1
2023-05-18T07:56:00.215Z,18.1
2023-05-18T08:00:00.247Z,17.5
2023-05-18T08:04:00.359Z,17.3
2023-05-18T08:08:00.197Z,16.2
2023-05-18T08:12:00.210Z,15.1
2023-05-18T08:16:11.045Z,14.8
2023-05-18T08:20:00.262Z,14.1
2023-05-18T08:24:00.205Z,16.4
2023-05-18T08:28:00.197Z,17.6
2023-05-18T08:32:00.318Z,18.7
2023-05-18T08:36:00.198Z,19.4
2023-05-18T08:40:00.199Z,20.2
2023-05-18T08:44:00.201Z,18.9
2023-05-18T08:48:00.293Z,16.6
2023-05-18T08:52:00.199Z,17.0
2023-05-18T08:56:00.211Z,17.4
2023-05-18T09:00:00.317Z,16.5
2023-05-18T09:04:00.197Z,15.1
2023-05-18T09:08:00.191Z,14.7
2023-05-18T09:12:00.201Z,14.4
2023-05-18T09:16:00.246Z,14.7
2023-05-18T09:20:00.312Z,16.8
2023-05-18T09:24:00.193Z,17.3
2023-05-18T09:28:00.200Z,15.5
2023-05-18T09:32:00.464Z,15.5
2023-05-18T09:36:00.192Z,15.2
2023-05-18T09:40:00.362Z,15.7
2023-05-18T09:44:00.190Z,16.1
2023-05-18T09:48:00.226Z,17.1
2023-05-18T09:52:00.239Z,16.4
2023-05-18T09:56:00.204Z,16.0
2023-05-18T10:00:00.219Z,15.7
2023-05-18T10:04:00.235Z,18.3
2023-05-18T10:08:00.221Z,16.2
2023-05-18T10:12:00.199Z,18.5
2023-05-18T10:16:00.217Z,18.7
2023-05-18T10:20:00.221Z,20.0
2023-05-18T10:24:00.211Z,20.0
2023-05-18T10:28:00.193Z,19.7
2023-05-18T10:32:02.959Z,20.1
2023-05-18T10:36:00.188Z,19.2
2023-05-18T10:40:00.232Z,20.5
2023-05-18T10:44:00.208Z,20.6
2023-05-18T10:48:00.341Z,21.1
2023-05-18T10:52:00.212Z,20.9
2023-05-18T10:56:00.221Z,17.6
2023-05-18T11:00:00.204Z,18.5
2023-05-18T11:04:00.205Z,20.0
2023-05-18T11:08:00.193Z,16.5
2023-05-18T11:12:00.297Z,16.3
2023-05-18T11:16:00.234Z,17.9
2023-05-18T11:20:00.239Z,19.1
2023-05-18T11:24:00.199Z,21.4
2023-05-18T11:28:00.218Z,20.7
2023-05-18T11:32:01.249Z,21.1
2023-05-18T11:36:00.223Z,21.1
2023-05-18T11:40:03.868Z,20.6
2023-05-18T11:44:00.219Z,18.5
2023-05-18T11:48:00.288Z,20.4
2023-05-18T11:52:00.210Z,19.3
2023-05-18T11:56:00.196Z,19.8
2023-05-18T12:00:00.240Z,20.5
2023-05-18T12:04:00.266Z,21.1
2023-05-18T12:08:00.209Z,21.0
2023-05-18T12:12:00.221Z,20.4
2023-05-18T12:16:00.196Z,19.5
2023-05-18T12:20:00.191Z,20.7
2023-05-18T12:24:00.206Z,22.1
2023-05-18T12:28:00.201Z,22.1
2023-05-18T12:32:00.209Z,22.2
2023-05-18T12:36:00.177Z,22.1
2023-05-18T12:40:00.207Z,20.8
2023-05-18T12:44:00.182Z,21.8
2023-05-18T12:48:00.276Z,18.6
2023-05-18T12:52:00.206Z,18.6
2023-05-18T12:56:00.215Z,18.7
2023-05-18T13:00:00.209Z,20.6
2023-05-18T13:04:00.375Z,20.5
2023-05-18T13:08:00.192Z,20.7
2023-05-18T13:12:07.419Z,21.5
2023-05-18T13:16:00.218Z,22.3
2023-05-18T13:20:00.206Z,20.1
2023-05-18T13:24:00.189Z,20.8
2023-05-18T13:28:00.195Z,21.1
2023-05-18T13:32:00.279Z,20.5
2023-05-18T13:36:00.199Z,20.5
2023-05-18T13:40:00.270Z,22.2
2023-05-18T13:44:00.225Z,22.1
2023-05-18T13:48:00.233Z,22.3
2023-05-18T13:52:00.240Z,21.9
2023-05-18T13:56:00.235Z,22.0
2023-05-18T14:00:00.215Z,22.3
2023-05-18T14:04:00.214Z,21.3
2023-05-18T14:08:00.226Z,20.4
2023-05-18T14:12:00.246Z,19.7
2023-05-18T14:16:00.210Z,19.4
2023-05-18T14:20:00.261Z,19.3
2023-05-18T14:24:00.212Z,19.1
2023-05-18T14:28:00.198Z,19.6
2023-05-18T14:32:00.195Z,19.1
2023-05-18T14:36:00.203Z,18.8
2023-05-18T14:40:00.246Z,18.9
2023-05-18T14:44:00.184Z,19.3
2023-05-18T14:48:00.230Z,19.3
2023-05-18T14:52:00.191Z,19.2
2023-05-18T14:56:00.211Z,19.2
2023-05-18T15:00:00.221Z,19.1
2023-05-18T15:04:00.280Z,18.0
2023-05-18T15:08:00.208Z,18.3
2023-05-18T15:12:00.208Z,18.0
2023-05-18T15:16:00.271Z,18.5
2023-05-18T15:20:00.252Z,18.5
2023-05-18T15:24:00.188Z,18.0
2023-05-18T15:28:00.202Z,18.0
2023-05-18T15:32:00.249Z,17.7
2023-05-18T15:36:00.217Z,18.1
2023-05-18T15:40:00.193Z,18.1
2023-05-18T15:44:00.213Z,17.6
2023-05-18T15:48:00.260Z,17.9
2023-05-18T15:52:00.184Z,17.8
2023-05-18T15:56:00.206Z,17.1
2023-05-18T16:00:00.226Z,16.9
2023-05-18T16:04:00.278Z,16.8
2023-05-18T16:08:00.184Z,17.0
2023-05-18T16:12:00.219Z,16.9
2023-05-18T16:16:00.207Z,16.5
2023-05-18T16:20:02.733Z,16.5
2023-05-18T16:24:00.227Z,16.5
2023-05-18T16:28:00.234Z,16.5
2023-05-18T16:32:00.296Z,16.4
2023-05-18T16:36:00.241Z,17.3
2023-05-18T16:40:00.399Z,18.6
2023-05-18T16:44:00.204Z,18.7
2023-05-18T16:48:00.256Z,18.3
2023-05-18T16:52:00.214Z,18.5
2023-05-18T16:56:00.201Z,18.2
2023-05-18T17:00:00.241Z,18.4
2023-05-18T17:04:00.342Z,17.9
2023-05-18T17:08:00.191Z,17.7
2023-05-18T17:12:00.228Z,17.6
2023-05-18T17:16:00.263Z,17.8
2023-05-18T17:20:00.226Z,17.6
2023-05-18T17:24:00.226Z,17.1
2023-05-18T17:28:00.190Z,16.6
2023-05-18T17:32:00.260Z,16.3
2023-05-18T17:36:00.203Z,16.2
2023-05-18T17:40:00.223Z,15.9
2023-05-18T17:44:00.188Z,15.6
2023-05-18T17:48:00.281Z,15.6
2023-05-18T17:52:00.203Z,15.5
2023-05-18T17:56:00.190Z,15.3
2023-05-18T18:00:00.220Z,15.3
2023-05-18T18:04:00.244Z,15.2
2023-05-18T18:08:00.211Z,15.0
2023-05-18T18:12:00.181Z,15.1
2023-05-18T18:16:00.223Z,14.9
2023-05-18T18:20:00.207Z,14.5
2023-05-18T18:24:00.268Z,14.4
2023-05-18T18:28:00.237Z,14.1
2023-05-18T18:32:00.186Z,13.7
2023-05-18T18:36:00.255Z,13.5
2023-05-18T18:40:00.201Z,13.4
2023-05-18T18:44:00.204Z,13.1
2023-05-18T18:48:00.254Z,13.0
2023-05-18T18:52:00.214Z,12.9
2023-05-18T18:56:00.204Z,12.8
2023-05-18T19:00:00.230Z,12.7
2023-05-18T19:04:00.197Z,12.5
2023-05-18T19:08:00.196Z,12.5
2023-05-18T19:12:00.181Z,12.3
2023-05-18T19:16:00.245Z,12.2
2023-05-18T19:20:00.245Z,12.1
2023-05-18T19:24:00.210Z,12.0
2023-05-18T19:28:00.222Z,11.8
2023-05-18T19:32:00.281Z,11.8
2023-05-18T19:36:00.234Z,11.8
2023-05-18T19:40:00.213Z,11.6
2023-05-18T19:44:00.214Z,11.7
2023-05-18T19:48:00.247Z,11.5
2023-05-18T19:52:00.217Z,11.2
2023-05-18T19:56:00.189Z,10.9
2023-05-18T20:00:00.444Z,10.6
2023-05-18T20:04:00.388Z,10.4
2023-05-18T20:08:00.200Z,10.1
2023-05-18T20:12:00.210Z,9.9
2023-05-18T20:16:00.215Z,9.7
2023-05-18T20:20:00.290Z,9.3
2023-05-18T20:24:00.235Z,9.2
2023-05-18T20:28:00.210Z,10.2
2023-05-18T20:32:00.210Z,10.7
2023-05-18T20:36:00.228Z,11.0
2023-05-18T20:40:00.232Z,11.1
2023-05-18T20:44:00.174Z,11.1
2023-05-18T20:48:00.595Z,11.1
2023-05-18T20:52:00.188Z,10.9
2023-05-18T20:56:00.255Z,10.9
2023-05-18T21:00:00.227Z,10.9
2023-05-18T21:04:00.524Z,10.8
2023-05-18T21:08:00.212Z,11.0
2023-05-18T21:12:00.237Z,10.7
2023-05-18T21:16:00.269Z,10.6
2023-05-18T21:20:00.313Z,10.6
2023-05-18T21:24:00.228Z,10.7
2023-05-18T21:28:00.285Z,10.7
2023-05-18T21:32:00.380Z,10.7
2023-05-18T21:36:00.190Z,10.8
2023-05-18T21:40:00.358Z,10.4
2023-05-18T21:44:00.198Z,10.4
2023-05-18T21:48:00.355Z,10.4
2023-05-18T21:52:00.197Z,10.4
2023-05-18T21:56:00.220Z,10.1
2023-05-18T22:00:00.200Z,10.1
2023-05-18T22:04:00.265Z,10.2
2023-05-18T22:08:00.193Z,10.0
2023-05-18T22:12:00.222Z,9.9
2023-05-18T22:16:00.232Z,9.8
2023-05-18T22:20:00.272Z,9.9
2023-05-18T22:24:00.205Z,10.1
2023-05-18T22:28:00.195Z,9.9
2023-05-18T22:32:00.246Z,9.9
2023-05-18T22:36:00.197Z,9.8
2023-05-18T22:40:00.206Z,9.6
2023-05-18T22:44:00.196Z,9.4
2023-05-18T22:48:00.252Z,9.2
2023-05-18T22:52:00.178Z,9.1
2023-05-18T22:56:00.215Z,8.9
2023-05-18T23:00:00.244Z,8.7
2023-05-18T23:04:00.205Z,8.5
2023-05-18T23:08:00.187Z,8.2
2023-05-18T23:12:00.212Z,8.4
2023-05-18T23:16:00.267Z,8.3
2023-05-18T23:20:00.215Z,8.4
2023-05-18T23:24:00.185Z,8.4
2023-05-18T23:28:00.188Z,8.4
2023-05-18T23:32:00.263Z,8.3
2023-05-18T23:36:00.221Z,8.5
2023-05-18T23:40:00.205Z,8.3
2023-05-18T23:44:00.192Z,8.2
2023-05-18T23:48:00.256Z,8.0
2023-05-18T23:52:00.188Z,7.9
2023-05-18T23:56:00.284Z,7.9
